sensor_id;sensor_type;location;lat;lon;timestamp;P1;durP1;ratioP1;P2;durP2;ratioP2
14883;SDS011;7534;50.762;7.000;2023-02-28T00:02:20;6.40;;;3.30;;
14883;SDS011;7534;50.762;7.000;2023-02-28T00:04:45;3.77;;;3.20;;
14883;SDS011;7534;50.762;7.000;2023-02-28T00:07:25;5.43;;;3.37;;
14883;SDS011;7534;50.762;7.000;2023-02-28T00:09:52;5.33;;;3.00;;
14883;SDS011;7534;50.762;7.000;2023-02-28T00:12:18;4.93;;;3.23;;
14883;SDS011;7534;50.762;7.000;2023-02-28T00:14:44;4.50;;;2.80;;
14883;SDS011;7534;50.762;7.000;2023-02-28T00:17:10;4.00;;;3.20;;
14883;SDS011;7534;50.762;7.000;2023-02-28T00:19:35;5.67;;;2.90;;
14883;SDS011;7534;50.762;7.000;2023-02-28T00:22:01;5.73;;;2.83;;
14883;SDS011;7534;50.762;7.000;2023-02-28T00:24:27;4.53;;;2.93;;
14883;SDS011;7534;50.762;7.000;2023-02-28T00:26:52;4.07;;;3.13;;
14883;SDS011;7534;50.762;7.000;2023-02-28T00:29:18;4.67;;;3.03;;
14883;SDS011;7534;50.762;7.000;2023-02-28T00:31:43;4.87;;;2.70;;
14883;SDS011;7534;50.762;7.000;2023-02-28T00:34:09;4.07;;;2.80;;
14883;SDS011;7534;50.762;7.000;2023-02-28T00:36:35;3.90;;;3.13;;
14883;SDS011;7534;50.762;7.000;2023-02-28T00:39:00;6.33;;;3.07;;
14883;SDS011;7534;50.762;7.000;2023-02-28T00:41:26;4.53;;;3.17;;
14883;SDS011;7534;50.762;7.000;2023-02-28T00:43:51;4.03;;;2.90;;
14883;SDS011;7534;50.762;7.000;2023-02-28T00:46:17;6.07;;;3.07;;
14883;SDS011;7534;50.762;7.000;2023-02-28T00:48:43;4.33;;;3.23;;
14883;SDS011;7534;50.762;7.000;2023-02-28T00:51:08;4.93;;;3.20;;
14883;SDS011;7534;50.762;7.000;2023-02-28T00:53:34;4.77;;;3.40;;
14883;SDS011;7534;50.762;7.000;2023-02-28T00:56:00;4.57;;;2.83;;
14883;SDS011;7534;50.762;7.000;2023-02-28T00:58:26;5.33;;;3.33;;
14883;SDS011;7534;50.762;7.000;2023-02-28T01:00:52;4.17;;;3.00;;
14883;SDS011;7534;50.762;7.000;2023-02-28T01:03:19;4.67;;;3.50;;
14883;SDS011;7534;50.762;7.000;2023-02-28T01:05:46;5.20;;;3.20;;
14883;SDS011;7534;50.762;7.000;2023-02-28T01:08:12;4.63;;;3.37;;
14883;SDS011;7534;50.762;7.000;2023-02-28T01:10:39;5.47;;;3.30;;
14883;SDS011;7534;50.762;7.000;2023-02-28T01:13:04;4.13;;;3.50;;
14883;SDS011;7534;50.762;7.000;2023-02-28T01:15:31;6.63;;;3.50;;
14883;SDS011;7534;50.762;7.000;2023-02-28T01:17:58;6.20;;;3.57;;
14883;SDS011;7534;50.762;7.000;2023-02-28T01:20:24;4.67;;;3.43;;
14883;SDS011;7534;50.762;7.000;2023-02-28T01:22:49;7.03;;;3.80;;
14883;SDS011;7534;50.762;7.000;2023-02-28T01:25:15;5.17;;;3.77;;
14883;SDS011;7534;50.762;7.000;2023-02-28T01:27:41;5.90;;;3.73;;
14883;SDS011;7534;50.762;7.000;2023-02-28T01:30:07;6.47;;;3.60;;
14883;SDS011;7534;50.762;7.000;2023-02-28T01:32:35;8.30;;;4.00;;
14883;SDS011;7534;50.762;7.000;2023-02-28T01:35:01;6.60;;;3.30;;
14883;SDS011;7534;50.762;7.000;2023-02-28T01:37:27;4.57;;;3.60;;
14883;SDS011;7534;50.762;7.000;2023-02-28T01:39:53;5.13;;;3.63;;
14883;SDS011;7534;50.762;7.000;2023-02-28T01:42:18;5.80;;;3.47;;
14883;SDS011;7534;50.762;7.000;2023-02-28T01:47:52;4.47;;;3.30;;
14883;SDS011;7534;50.762;7.000;2023-02-28T01:50:27;6.20;;;3.70;;
14883;SDS011;7534;50.762;7.000;2023-02-28T01:53:00;5.70;;;3.43;;
14883;SDS011;7534;50.762;7.000;2023-02-28T01:55:31;4.03;;;3.37;;
14883;SDS011;7534;50.762;7.000;2023-02-28T01:57:59;4.60;;;3.50;;
14883;SDS011;7534;50.762;7.000;2023-02-28T02:00:29;4.73;;;3.50;;
14883;SDS011;7534;50.762;7.000;2023-02-28T02:02:57;6.27;;;3.57;;
14883;SDS011;7534;50.762;7.000;2023-02-28T02:05:29;4.90;;;3.30;;
14883;SDS011;7534;50.762;7.000;2023-02-28T02:07:57;6.77;;;3.77;;
14883;SDS011;7534;50.762;7.000;2023-02-28T02:10:35;5.20;;;3.70;;
14883;SDS011;7534;50.762;7.000;2023-02-28T02:13:18;5.10;;;3.57;;
14883;SDS011;7534;50.762;7.000;2023-02-28T02:24:00;4.03;;;3.30;;
14883;SDS011;7534;50.762;7.000;2023-02-28T02:27:11;5.23;;;3.83;;
14883;SDS011;7534;50.762;7.000;2023-02-28T02:36:42;5.13;;;3.33;;
14883;SDS011;7534;50.762;7.000;2023-02-28T02:39:25;6.30;;;3.57;;
14883;SDS011;7534;50.762;7.000;2023-02-28T02:42:34;4.70;;;3.47;;
14883;SDS011;7534;50.762;7.000;2023-02-28T02:45:11;5.77;;;3.40;;
14883;SDS011;7534;50.762;7.000;2023-02-28T02:47:42;3.93;;;3.40;;
14883;SDS011;7534;50.762;7.000;2023-02-28T02:50:14;5.07;;;3.80;;
14883;SDS011;7534;50.762;7.000;2023-02-28T02:52:51;7.90;;;3.50;;
14883;SDS011;7534;50.762;7.000;2023-02-28T02:55:23;4.83;;;3.47;;
14883;SDS011;7534;50.762;7.000;2023-02-28T02:57:58;5.13;;;3.47;;
14883;SDS011;7534;50.762;7.000;2023-02-28T03:00:30;5.93;;;3.67;;
14883;SDS011;7534;50.762;7.000;2023-02-28T03:03:05;4.23;;;3.37;;
14883;SDS011;7534;50.762;7.000;2023-02-28T03:05:50;8.73;;;3.70;;
14883;SDS011;7534;50.762;7.000;2023-02-28T03:08:16;5.93;;;3.60;;
14883;SDS011;7534;50.762;7.000;2023-02-28T03:10:46;4.57;;;3.40;;
14883;SDS011;7534;50.762;7.000;2023-02-28T03:16:17;7.07;;;3.60;;
14883;SDS011;7534;50.762;7.000;2023-02-28T03:22:14;4.37;;;3.30;;
14883;SDS011;7534;50.762;7.000;2023-02-28T03:24:49;5.43;;;3.60;;
14883;SDS011;7534;50.762;7.000;2023-02-28T03:27:38;5.73;;;3.77;;
14883;SDS011;7534;50.762;7.000;2023-02-28T03:33:20;4.80;;;3.60;;
14883;SDS011;7534;50.762;7.000;2023-02-28T03:36:12;5.37;;;3.80;;
14883;SDS011;7534;50.762;7.000;2023-02-28T03:38:58;6.70;;;3.37;;
14883;SDS011;7534;50.762;7.000;2023-02-28T03:41:36;6.57;;;3.87;;
14883;SDS011;7534;50.762;7.000;2023-02-28T03:44:18;5.17;;;3.53;;
14883;SDS011;7534;50.762;7.000;2023-02-28T03:49:49;5.93;;;3.60;;
14883;SDS011;7534;50.762;7.000;2023-02-28T03:52:28;4.37;;;3.60;;
14883;SDS011;7534;50.762;7.000;2023-02-28T03:55:06;8.20;;;3.80;;
14883;SDS011;7534;50.762;7.000;2023-02-28T04:00:31;5.23;;;3.40;;
14883;SDS011;7534;50.762;7.000;2023-02-28T04:03:04;5.33;;;3.93;;
14883;SDS011;7534;50.762;7.000;2023-02-28T04:05:31;4.93;;;3.40;;
14883;SDS011;7534;50.762;7.000;2023-02-28T04:08:07;8.33;;;4.30;;
14883;SDS011;7534;50.762;7.000;2023-02-28T04:10:33;5.30;;;3.47;;
14883;SDS011;7534;50.762;7.000;2023-02-28T04:12:59;6.03;;;3.63;;
14883;SDS011;7534;50.762;7.000;2023-02-28T04:15:25;4.40;;;3.33;;
14883;SDS011;7534;50.762;7.000;2023-02-28T04:17:52;5.97;;;3.70;;
14883;SDS011;7534;50.762;7.000;2023-02-28T04:20:18;6.77;;;4.03;;
14883;SDS011;7534;50.762;7.000;2023-02-28T04:22:44;5.87;;;3.63;;
14883;SDS011;7534;50.762;7.000;2023-02-28T04:25:09;4.13;;;3.33;;
14883;SDS011;7534;50.762;7.000;2023-02-28T04:27:35;4.77;;;3.57;;
14883;SDS011;7534;50.762;7.000;2023-02-28T04:30:00;5.87;;;3.93;;
14883;SDS011;7534;50.762;7.000;2023-02-28T04:32:26;5.30;;;3.80;;
14883;SDS011;7534;50.762;7.000;2023-02-28T04:34:52;4.80;;;3.90;;
14883;SDS011;7534;50.762;7.000;2023-02-28T04:37:17;4.93;;;3.93;;
14883;SDS011;7534;50.762;7.000;2023-02-28T04:39:43;5.90;;;4.03;;
14883;SDS011;7534;50.762;7.000;2023-02-28T04:42:09;6.20;;;4.00;;
14883;SDS011;7534;50.762;7.000;2023-02-28T04:44:36;5.90;;;3.63;;
14883;SDS011;7534;50.762;7.000;2023-02-28T04:47:01;5.73;;;3.67;;
14883;SDS011;7534;50.762;7.000;2023-02-28T04:49:27;5.83;;;3.87;;
14883;SDS011;7534;50.762;7.000;2023-02-28T04:51:53;5.13;;;4.07;;
14883;SDS011;7534;50.762;7.000;2023-02-28T04:54:18;7.00;;;4.20;;
14883;SDS011;7534;50.762;7.000;2023-02-28T04:56:44;4.67;;;3.83;;
14883;SDS011;7534;50.762;7.000;2023-02-28T04:59:10;4.37;;;3.57;;
14883;SDS011;7534;50.762;7.000;2023-02-28T05:01:36;4.60;;;3.87;;
14883;SDS011;7534;50.762;7.000;2023-02-28T05:04:03;9.70;;;4.20;;
14883;SDS011;7534;50.762;7.000;2023-02-28T05:06:30;6.07;;;3.67;;
14883;SDS011;7534;50.762;7.000;2023-02-28T05:08:57;5.53;;;3.83;;
14883;SDS011;7534;50.762;7.000;2023-02-28T05:11:29;4.73;;;3.80;;
14883;SDS011;7534;50.762;7.000;2023-02-28T05:14:05;4.33;;;3.90;;
14883;SDS011;7534;50.762;7.000;2023-02-28T05:16:37;5.77;;;4.17;;
14883;SDS011;7534;50.762;7.000;2023-02-28T05:19:03;6.30;;;3.80;;
14883;SDS011;7534;50.762;7.000;2023-02-28T05:21:30;6.10;;;4.10;;
14883;SDS011;7534;50.762;7.000;2023-02-28T05:24:12;5.70;;;4.00;;
14883;SDS011;7534;50.762;7.000;2023-02-28T05:26:39;5.07;;;3.83;;
14883;SDS011;7534;50.762;7.000;2023-02-28T05:29:08;5.87;;;3.87;;
14883;SDS011;7534;50.762;7.000;2023-02-28T05:31:35;7.00;;;3.87;;
14883;SDS011;7534;50.762;7.000;2023-02-28T05:34:01;5.63;;;4.03;;
14883;SDS011;7534;50.762;7.000;2023-02-28T05:36:29;5.87;;;4.00;;
14883;SDS011;7534;50.762;7.000;2023-02-28T05:38:55;5.97;;;3.83;;
14883;SDS011;7534;50.762;7.000;2023-02-28T05:41:20;6.80;;;4.27;;
14883;SDS011;7534;50.762;7.000;2023-02-28T05:43:47;6.17;;;3.80;;
14883;SDS011;7534;50.762;7.000;2023-02-28T05:46:13;6.63;;;4.03;;
14883;SDS011;7534;50.762;7.000;2023-02-28T05:48:40;5.63;;;3.70;;
14883;SDS011;7534;50.762;7.000;2023-02-28T05:51:08;7.93;;;4.20;;
14883;SDS011;7534;50.762;7.000;2023-02-28T05:53:34;5.87;;;4.07;;
14883;SDS011;7534;50.762;7.000;2023-02-28T05:56:01;5.77;;;4.13;;
14883;SDS011;7534;50.762;7.000;2023-02-28T05:58:27;6.70;;;4.00;;
14883;SDS011;7534;50.762;7.000;2023-02-28T06:00:58;4.27;;;3.77;;
14883;SDS011;7534;50.762;7.000;2023-02-28T06:03:26;7.63;;;4.00;;
14883;SDS011;7534;50.762;7.000;2023-02-28T06:05:52;9.40;;;7.25;;
14883;SDS011;7534;50.762;7.000;2023-02-28T06:08:18;9.45;;;6.97;;
14883;SDS011;7534;50.762;7.000;2023-02-28T06:10:44;7.23;;;4.93;;
14883;SDS011;7534;50.762;7.000;2023-02-28T06:13:10;5.60;;;4.30;;
14883;SDS011;7534;50.762;7.000;2023-02-28T06:15:37;6.80;;;4.47;;
14883;SDS011;7534;50.762;7.000;2023-02-28T06:18:03;6.47;;;5.10;;
14883;SDS011;7534;50.762;7.000;2023-02-28T06:20:29;6.67;;;4.93;;
14883;SDS011;7534;50.762;7.000;2023-02-28T06:22:55;6.80;;;4.43;;
14883;SDS011;7534;50.762;7.000;2023-02-28T06:25:23;5.40;;;4.63;;
14883;SDS011;7534;50.762;7.000;2023-02-28T06:27:53;6.10;;;4.23;;
14883;SDS011;7534;50.762;7.000;2023-02-28T06:30:20;5.67;;;4.77;;
14883;SDS011;7534;50.762;7.000;2023-02-28T06:32:50;5.67;;;4.57;;
14883;SDS011;7534;50.762;7.000;2023-02-28T06:35:15;8.10;;;4.73;;
14883;SDS011;7534;50.762;7.000;2023-02-28T06:37:41;6.87;;;4.90;;
14883;SDS011;7534;50.762;7.000;2023-02-28T06:40:09;7.00;;;4.93;;
14883;SDS011;7534;50.762;7.000;2023-02-28T06:42:35;6.10;;;4.87;;
14883;SDS011;7534;50.762;7.000;2023-02-28T06:45:01;7.30;;;4.93;;
14883;SDS011;7534;50.762;7.000;2023-02-28T06:47:33;6.53;;;4.73;;
14883;SDS011;7534;50.762;7.000;2023-02-28T06:50:03;6.10;;;4.60;;
14883;SDS011;7534;50.762;7.000;2023-02-28T06:52:31;7.20;;;5.23;;
14883;SDS011;7534;50.762;7.000;2023-02-28T06:54:57;7.33;;;5.43;;
14883;SDS011;7534;50.762;7.000;2023-02-28T06:57:27;9.10;;;6.23;;
14883;SDS011;7534;50.762;7.000;2023-02-28T07:00:02;8.23;;;5.27;;
14883;SDS011;7534;50.762;7.000;2023-02-28T07:02:34;10.23;;;5.90;;
14883;SDS011;7534;50.762;7.000;2023-02-28T07:05:01;11.30;;;6.73;;
14883;SDS011;7534;50.762;7.000;2023-02-28T07:07:27;7.57;;;5.90;;
14883;SDS011;7534;50.762;7.000;2023-02-28T07:09:52;8.93;;;5.57;;
14883;SDS011;7534;50.762;7.000;2023-02-28T07:12:18;6.47;;;5.00;;
14883;SDS011;7534;50.762;7.000;2023-02-28T07:14:44;6.10;;;4.57;;
14883;SDS011;7534;50.762;7.000;2023-02-28T07:17:10;5.17;;;3.70;;
14883;SDS011;7534;50.762;7.000;2023-02-28T07:19:37;7.60;;;4.40;;
14883;SDS011;7534;50.762;7.000;2023-02-28T07:22:04;4.87;;;3.50;;
14883;SDS011;7534;50.762;7.000;2023-02-28T07:24:30;7.13;;;3.30;;
14883;SDS011;7534;50.762;7.000;2023-02-28T07:26:55;4.90;;;3.70;;
14883;SDS011;7534;50.762;7.000;2023-02-28T07:29:21;4.67;;;3.73;;
14883;SDS011;7534;50.762;7.000;2023-02-28T07:31:47;5.00;;;3.67;;
14883;SDS011;7534;50.762;7.000;2023-02-28T07:34:15;4.73;;;3.47;;
14883;SDS011;7534;50.762;7.000;2023-02-28T07:36:41;7.17;;;3.70;;
14883;SDS011;7534;50.762;7.000;2023-02-28T07:39:06;6.30;;;3.70;;
14883;SDS011;7534;50.762;7.000;2023-02-28T07:41:35;8.00;;;3.93;;
14883;SDS011;7534;50.762;7.000;2023-02-28T07:44:04;5.10;;;3.30;;
14883;SDS011;7534;50.762;7.000;2023-02-28T07:46:30;4.57;;;3.07;;
14883;SDS011;7534;50.762;7.000;2023-02-28T07:49:00;7.22;;;3.72;;
14883;SDS011;7534;50.762;7.000;2023-02-28T07:51:27;3.60;;;3.25;;
14883;SDS011;7534;50.762;7.000;2023-02-28T07:53:54;5.50;;;3.15;;
14883;SDS011;7534;50.762;7.000;2023-02-28T07:56:20;4.63;;;2.92;;
14883;SDS011;7534;50.762;7.000;2023-02-28T07:58:46;4.57;;;3.35;;
14883;SDS011;7534;50.762;7.000;2023-02-28T08:01:12;4.93;;;3.00;;
14883;SDS011;7534;50.762;7.000;2023-02-28T08:03:38;6.10;;;3.05;;
14883;SDS011;7534;50.762;7.000;2023-02-28T08:06:07;3.65;;;3.25;;
14883;SDS011;7534;50.762;7.000;2023-02-28T08:08:41;4.47;;;3.20;;
14883;SDS011;7534;50.762;7.000;2023-02-28T08:11:07;5.05;;;3.17;;
14883;SDS011;7534;50.762;7.000;2023-02-28T08:13:32;3.15;;;2.80;;
14883;SDS011;7534;50.762;7.000;2023-02-28T08:16:00;7.32;;;3.53;;
14883;SDS011;7534;50.762;7.000;2023-02-28T08:18:27;4.07;;;2.88;;
14883;SDS011;7534;50.762;7.000;2023-02-28T08:20:53;4.85;;;3.00;;
14883;SDS011;7534;50.762;7.000;2023-02-28T08:23:18;4.60;;;2.55;;
14883;SDS011;7534;50.762;7.000;2023-02-28T08:25:44;4.05;;;3.03;;
14883;SDS011;7534;50.762;7.000;2023-02-28T08:28:17;2.60;;;2.40;;
14883;SDS011;7534;50.762;7.000;2023-02-28T08:30:42;2.77;;;2.57;;
14883;SDS011;7534;50.762;7.000;2023-02-28T08:33:08;2.60;;;2.40;;
14883;SDS011;7534;50.762;7.000;2023-02-28T08:35:35;3.80;;;2.40;;
14883;SDS011;7534;50.762;7.000;2023-02-28T08:38:02;3.43;;;2.80;;
14883;SDS011;7534;50.762;7.000;2023-02-28T08:40:27;3.20;;;2.30;;
14883;SDS011;7534;50.762;7.000;2023-02-28T08:42:53;2.77;;;2.57;;
14883;SDS011;7534;50.762;7.000;2023-02-28T08:45:19;2.70;;;2.50;;
14883;SDS011;7534;50.762;7.000;2023-02-28T08:47:44;2.60;;;2.37;;
14883;SDS011;7534;50.762;7.000;2023-02-28T08:50:10;3.10;;;2.50;;
14883;SDS011;7534;50.762;7.000;2023-02-28T08:52:38;4.50;;;2.30;;
14883;SDS011;7534;50.762;7.000;2023-02-28T08:55:04;3.33;;;2.70;;
14883;SDS011;7534;50.762;7.000;2023-02-28T08:57:30;2.37;;;2.17;;
14883;SDS011;7534;50.762;7.000;2023-02-28T08:59:55;2.40;;;2.20;;
14883;SDS011;7534;50.762;7.000;2023-02-28T09:02:22;2.33;;;2.13;;
14883;SDS011;7534;50.762;7.000;2023-02-28T09:04:47;2.70;;;2.07;;
14883;SDS011;7534;50.762;7.000;2023-02-28T09:07:13;2.40;;;2.20;;
14883;SDS011;7534;50.762;7.000;2023-02-28T09:09:40;2.67;;;1.87;;
14883;SDS011;7534;50.762;7.000;2023-02-28T09:12:18;3.03;;;1.77;;
14883;SDS011;7534;50.762;7.000;2023-02-28T09:14:51;3.30;;;2.10;;
14883;SDS011;7534;50.762;7.000;2023-02-28T09:17:18;3.07;;;2.10;;
14883;SDS011;7534;50.762;7.000;2023-02-28T09:19:47;2.13;;;1.93;;
14883;SDS011;7534;50.762;7.000;2023-02-28T09:22:14;2.40;;;2.00;;
14883;SDS011;7534;50.762;7.000;2023-02-28T09:24:40;2.10;;;1.80;;
14883;SDS011;7534;50.762;7.000;2023-02-28T09:27:05;2.13;;;1.93;;
14883;SDS011;7534;50.762;7.000;2023-02-28T09:29:32;2.97;;;2.03;;
14883;SDS011;7534;50.762;7.000;2023-02-28T09:31:59;2.55;;;2.15;;
14883;SDS011;7534;50.762;7.000;2023-02-28T09:34:26;2.03;;;1.90;;
14883;SDS011;7534;50.762;7.000;2023-02-28T09:36:52;2.87;;;2.07;;
14883;SDS011;7534;50.762;7.000;2023-02-28T09:39:21;2.13;;;1.93;;
14883;SDS011;7534;50.762;7.000;2023-02-28T09:41:48;2.23;;;1.93;;
14883;SDS011;7534;50.762;7.000;2023-02-28T09:46:55;2.37;;;1.67;;
14883;SDS011;7534;50.762;7.000;2023-02-28T09:49:31;1.90;;;1.80;;
14883;SDS011;7534;50.762;7.000;2023-02-28T09:52:07;3.20;;;2.00;;
14883;SDS011;7534;50.762;7.000;2023-02-28T09:54:41;2.00;;;1.80;;
14883;SDS011;7534;50.762;7.000;2023-02-28T09:57:11;4.50;;;1.93;;
14883;SDS011;7534;50.762;7.000;2023-02-28T10:03:03;1.97;;;1.80;;
14883;SDS011;7534;50.762;7.000;2023-02-28T10:05:59;2.90;;;1.73;;
14883;SDS011;7534;50.762;7.000;2023-02-28T10:08:40;2.27;;;2.07;;
14883;SDS011;7534;50.762;7.000;2023-02-28T10:11:50;3.00;;;2.10;;
14883;SDS011;7534;50.762;7.000;2023-02-28T10:14:19;4.27;;;2.10;;
14883;SDS011;7534;50.762;7.000;2023-02-28T10:16:54;2.20;;;2.00;;
14883;SDS011;7534;50.762;7.000;2023-02-28T10:22:15;2.70;;;2.20;;
14883;SDS011;7534;50.762;7.000;2023-02-28T10:24:49;2.10;;;1.90;;
14883;SDS011;7534;50.762;7.000;2023-02-28T10:29:56;2.30;;;2.00;;
14883;SDS011;7534;50.762;7.000;2023-02-28T10:32:26;2.33;;;1.90;;
14883;SDS011;7534;50.762;7.000;2023-02-28T10:37:41;2.17;;;1.93;;
14883;SDS011;7534;50.762;7.000;2023-02-28T10:45:33;1.87;;;1.60;;
14883;SDS011;7534;50.762;7.000;2023-02-28T10:48:05;2.23;;;1.60;;
14883;SDS011;7534;50.762;7.000;2023-02-28T10:50:54;2.10;;;1.90;;
14883;SDS011;7534;50.762;7.000;2023-02-28T10:53:25;2.30;;;1.80;;
14883;SDS011;7534;50.762;7.000;2023-02-28T10:58:42;3.90;;;1.80;;
14883;SDS011;7534;50.762;7.000;2023-02-28T11:01:43;2.30;;;2.10;;
14883;SDS011;7534;50.762;7.000;2023-02-28T11:07:04;3.03;;;2.10;;
14883;SDS011;7534;50.762;7.000;2023-02-28T11:09:46;2.97;;;2.00;;
14883;SDS011;7534;50.762;7.000;2023-02-28T11:14:51;2.57;;;2.03;;
14883;SDS011;7534;50.762;7.000;2023-02-28T11:17:26;2.23;;;1.90;;
14883;SDS011;7534;50.762;7.000;2023-02-28T11:19:57;2.20;;;2.00;;
14883;SDS011;7534;50.762;7.000;2023-02-28T11:22:29;2.33;;;1.90;;
14883;SDS011;7534;50.762;7.000;2023-02-28T11:25:06;2.53;;;1.90;;
14883;SDS011;7534;50.762;7.000;2023-02-28T11:27:53;2.10;;;1.80;;
14883;SDS011;7534;50.762;7.000;2023-02-28T11:30:27;1.80;;;1.60;;
14883;SDS011;7534;50.762;7.000;2023-02-28T11:32:56;2.20;;;2.00;;
14883;SDS011;7534;50.762;7.000;2023-02-28T11:38:05;2.30;;;1.97;;
14883;SDS011;7534;50.762;7.000;2023-02-28T11:40:43;2.33;;;1.90;;
14883;SDS011;7534;50.762;7.000;2023-02-28T11:46:18;2.33;;;2.00;;
14883;SDS011;7534;50.762;7.000;2023-02-28T12:03:44;3.40;;;1.80;;
14883;SDS011;7534;50.762;7.000;2023-02-28T12:06:28;2.17;;;1.83;;
14883;SDS011;7534;50.762;7.000;2023-02-28T12:18:21;2.53;;;1.93;;
14883;SDS011;7534;50.762;7.000;2023-02-28T12:26:58;2.00;;;1.87;;
14883;SDS011;7534;50.762;7.000;2023-02-28T12:29:38;2.13;;;1.90;;
14883;SDS011;7534;50.762;7.000;2023-02-28T12:32:40;3.17;;;2.40;;
14883;SDS011;7534;50.762;7.000;2023-02-28T12:35:12;2.85;;;2.30;;
14883;SDS011;7534;50.762;7.000;2023-02-28T12:38:22;2.43;;;2.10;;
14883;SDS011;7534;50.762;7.000;2023-02-28T12:43:46;2.40;;;2.20;;
14883;SDS011;7534;50.762;7.000;2023-02-28T12:46:27;2.40;;;2.20;;
14883;SDS011;7534;50.762;7.000;2023-02-28T12:49:11;2.27;;;2.00;;
14883;SDS011;7534;50.762;7.000;2023-02-28T12:51:42;1.80;;;1.70;;
14883;SDS011;7534;50.762;7.000;2023-02-28T12:54:13;3.33;;;2.45;;
14883;SDS011;7534;50.762;7.000;2023-02-28T13:00:12;2.37;;;2.17;;
14883;SDS011;7534;50.762;7.000;2023-02-28T13:05:39;2.40;;;2.20;;
14883;SDS011;7534;50.762;7.000;2023-02-28T13:11:29;3.00;;;2.40;;
14883;SDS011;7534;50.762;7.000;2023-02-28T13:14:05;3.10;;;2.07;;
14883;SDS011;7534;50.762;7.000;2023-02-28T13:19:32;2.43;;;2.23;;
14883;SDS011;7534;50.762;7.000;2023-02-28T13:22:02;2.30;;;2.10;;
14883;SDS011;7534;50.762;7.000;2023-02-28T13:25:04;2.47;;;2.20;;
14883;SDS011;7534;50.762;7.000;2023-02-28T13:27:23;3.40;;;2.50;;
14883;SDS011;7534;50.762;7.000;2023-02-28T13:33:25;3.37;;;2.30;;
14883;SDS011;7534;50.762;7.000;2023-02-28T13:38:39;3.33;;;2.43;;
14883;SDS011;7534;50.762;7.000;2023-02-28T13:44:04;2.77;;;2.23;;
14883;SDS011;7534;50.762;7.000;2023-02-28T13:46:36;2.57;;;2.33;;
14883;SDS011;7534;50.762;7.000;2023-02-28T14:03:34;3.00;;;2.67;;
14883;SDS011;7534;50.762;7.000;2023-02-28T14:06:18;3.17;;;2.87;;
14883;SDS011;7534;50.762;7.000;2023-02-28T14:08:59;2.63;;;2.43;;
14883;SDS011;7534;50.762;7.000;2023-02-28T14:15:36;3.20;;;2.60;;
14883;SDS011;7534;50.762;7.000;2023-02-28T14:20:57;3.10;;;2.80;;
14883;SDS011;7534;50.762;7.000;2023-02-28T14:23:46;3.23;;;2.80;;
14883;SDS011;7534;50.762;7.000;2023-02-28T14:26:31;2.73;;;2.53;;
14883;SDS011;7534;50.762;7.000;2023-02-28T14:29:34;3.63;;;2.50;;
14883;SDS011;7534;50.762;7.000;2023-02-28T14:32:33;3.93;;;2.73;;
14883;SDS011;7534;50.762;7.000;2023-02-28T14:38:32;2.60;;;2.40;;
14883;SDS011;7534;50.762;7.000;2023-02-28T14:41:30;2.87;;;2.60;;
14883;SDS011;7534;50.762;7.000;2023-02-28T14:44:13;4.87;;;2.97;;
14883;SDS011;7534;50.762;7.000;2023-02-28T14:46:49;3.30;;;2.57;;
14883;SDS011;7534;50.762;7.000;2023-02-28T14:54:41;3.03;;;2.73;;
14883;SDS011;7534;50.762;7.000;2023-02-28T15:02:42;3.73;;;3.07;;
14883;SDS011;7534;50.762;7.000;2023-02-28T15:07:37;3.80;;;3.20;;
14883;SDS011;7534;50.762;7.000;2023-02-28T15:12:36;3.63;;;3.10;;
14883;SDS011;7534;50.762;7.000;2023-02-28T15:15:05;3.53;;;3.20;;
14883;SDS011;7534;50.762;7.000;2023-02-28T15:17:40;3.20;;;2.90;;
14883;SDS011;7534;50.762;7.000;2023-02-28T15:20:11;3.53;;;3.17;;
14883;SDS011;7534;50.762;7.000;2023-02-28T15:22:40;4.77;;;3.00;;
14883;SDS011;7534;50.762;7.000;2023-02-28T15:25:10;3.87;;;2.90;;
14883;SDS011;7534;50.762;7.000;2023-02-28T15:27:49;4.80;;;3.07;;
14883;SDS011;7534;50.762;7.000;2023-02-28T15:30:25;3.30;;;3.00;;
14883;SDS011;7534;50.762;7.000;2023-02-28T15:33:02;3.87;;;3.00;;
14883;SDS011;7534;50.762;7.000;2023-02-28T15:35:43;5.00;;;2.93;;
14883;SDS011;7534;50.762;7.000;2023-02-28T15:40:46;4.73;;;3.10;;
14883;SDS011;7534;50.762;7.000;2023-02-28T15:43:36;3.23;;;2.90;;
14883;SDS011;7534;50.762;7.000;2023-02-28T15:54:00;3.40;;;2.97;;
14883;SDS011;7534;50.762;7.000;2023-02-28T15:59:18;4.90;;;2.90;;
14883;SDS011;7534;50.762;7.000;2023-02-28T16:02:04;5.93;;;3.50;;
14883;SDS011;7534;50.762;7.000;2023-02-28T16:04:56;4.73;;;3.10;;
14883;SDS011;7534;50.762;7.000;2023-02-28T16:07:31;4.17;;;3.40;;
14883;SDS011;7534;50.762;7.000;2023-02-28T16:09:58;3.30;;;3.00;;
14883;SDS011;7534;50.762;7.000;2023-02-28T16:12:28;5.40;;;3.17;;
14883;SDS011;7534;50.762;7.000;2023-02-28T16:14:59;4.03;;;3.10;;
14883;SDS011;7534;50.762;7.000;2023-02-28T16:17:34;4.47;;;3.30;;
14883;SDS011;7534;50.762;7.000;2023-02-28T16:20:13;3.27;;;2.97;;
14883;SDS011;7534;50.762;7.000;2023-02-28T16:22:45;4.73;;;3.13;;
14883;SDS011;7534;50.762;7.000;2023-02-28T16:25:11;3.40;;;3.10;;
14883;SDS011;7534;50.762;7.000;2023-02-28T16:27:39;5.17;;;3.30;;
14883;SDS011;7534;50.762;7.000;2023-02-28T16:30:09;4.67;;;3.27;;
14883;SDS011;7534;50.762;7.000;2023-02-28T16:32:47;3.03;;;2.73;;
14883;SDS011;7534;50.762;7.000;2023-02-28T16:35:17;3.53;;;3.10;;
14883;SDS011;7534;50.762;7.000;2023-02-28T16:37:44;4.17;;;3.47;;
14883;SDS011;7534;50.762;7.000;2023-02-28T16:40:22;3.73;;;3.10;;
14883;SDS011;7534;50.762;7.000;2023-02-28T16:42:50;3.80;;;2.90;;
14883;SDS011;7534;50.762;7.000;2023-02-28T16:45:22;4.87;;;3.37;;
14883;SDS011;7534;50.762;7.000;2023-02-28T16:47:53;4.67;;;3.30;;
14883;SDS011;7534;50.762;7.000;2023-02-28T16:50:26;4.30;;;3.33;;
14883;SDS011;7534;50.762;7.000;2023-02-28T16:52:58;4.20;;;3.30;;
14883;SDS011;7534;50.762;7.000;2023-02-28T16:55:24;4.23;;;3.53;;
14883;SDS011;7534;50.762;7.000;2023-02-28T16:57:58;4.50;;;2.97;;
14883;SDS011;7534;50.762;7.000;2023-02-28T17:00:26;6.63;;;3.50;;
14883;SDS011;7534;50.762;7.000;2023-02-28T17:02:55;4.80;;;3.20;;
14883;SDS011;7534;50.762;7.000;2023-02-28T17:05:24;3.53;;;3.07;;
14883;SDS011;7534;50.762;7.000;2023-02-28T17:07:58;4.53;;;3.40;;
14883;SDS011;7534;50.762;7.000;2023-02-28T17:10:24;4.83;;;3.47;;
14883;SDS011;7534;50.762;7.000;2023-02-28T17:12:51;3.90;;;3.20;;
14883;SDS011;7534;50.762;7.000;2023-02-28T17:15:23;6.87;;;3.43;;
14883;SDS011;7534;50.762;7.000;2023-02-28T17:17:51;5.70;;;3.77;;
14883;SDS011;7534;50.762;7.000;2023-02-28T17:20:20;4.40;;;3.47;;
14883;SDS011;7534;50.762;7.000;2023-02-28T17:22:51;4.83;;;3.70;;
14883;SDS011;7534;50.762;7.000;2023-02-28T17:25:21;5.53;;;3.60;;
14883;SDS011;7534;50.762;7.000;2023-02-28T17:27:48;4.33;;;3.80;;
14883;SDS011;7534;50.762;7.000;2023-02-28T17:33:21;3.77;;;3.20;;
14883;SDS011;7534;50.762;7.000;2023-02-28T17:39:13;4.23;;;3.50;;
14883;SDS011;7534;50.762;7.000;2023-02-28T17:42:12;6.80;;;4.43;;
14883;SDS011;7534;50.762;7.000;2023-02-28T17:44:55;6.30;;;4.40;;
14883;SDS011;7534;50.762;7.000;2023-02-28T17:48:00;6.13;;;3.93;;
14883;SDS011;7534;50.762;7.000;2023-02-28T17:50:30;7.07;;;4.10;;
14883;SDS011;7534;50.762;7.000;2023-02-28T17:52:56;5.53;;;3.80;;
14883;SDS011;7534;50.762;7.000;2023-02-28T17:55:36;6.90;;;4.10;;
14883;SDS011;7534;50.762;7.000;2023-02-28T17:58:06;5.90;;;4.67;;
14883;SDS011;7534;50.762;7.000;2023-02-28T18:00:40;7.20;;;4.83;;
14883;SDS011;7534;50.762;7.000;2023-02-28T18:03:09;7.83;;;5.20;;
14883;SDS011;7534;50.762;7.000;2023-02-28T18:05:37;5.63;;;4.70;;
14883;SDS011;7534;50.762;7.000;2023-02-28T18:08:04;6.70;;;4.83;;
14883;SDS011;7534;50.762;7.000;2023-02-28T18:10:30;6.53;;;4.97;;
14883;SDS011;7534;50.762;7.000;2023-02-28T18:16:55;5.57;;;4.40;;
14883;SDS011;7534;50.762;7.000;2023-02-28T18:19:54;8.43;;;4.70;;
14883;SDS011;7534;50.762;7.000;2023-02-28T18:22:20;7.03;;;4.73;;
14883;SDS011;7534;50.762;7.000;2023-02-28T18:24:47;7.07;;;4.70;;
14883;SDS011;7534;50.762;7.000;2023-02-28T18:27:13;5.23;;;4.50;;
14883;SDS011;7534;50.762;7.000;2023-02-28T18:29:39;5.67;;;4.60;;
14883;SDS011;7534;50.762;7.000;2023-02-28T18:32:06;5.83;;;5.03;;